Dollard-Des-Ormeaux, Canada
Current Conditions -  °F | °C
As of 1:00 AM on Wednesday 28 Jan 2015 (Local Time) from CYUL Reporting Station
Clear Clear  
Wind Chill: -6°   Ceiling: Unl
Heat Index:   Visibility: 5mi
Dew Point: -4°   Wind: 12mph
Humidity: 57%   Direction: 20°NNE
Pressure: 30.04"   Gusts: NA
Location:  45.45°N, 73.85°W
Report Text: CYUL 280600Z 02010KT 5SM M13/M20 A3004 RMK SLP174
Loading
Personal Weather Stations






























Interactive Weather Map New forecast layout! Learn more

10-Day Weather Forecast

Advertisements
Track Severe Weather on mobile